Main page
Satellite images 10-day forecastsClimateMarine weather Cyclones Lightning AirportsFAQ Newsletter About
Weather : Europe Africa North America South America Asia Australia-Oceania Others
Languages Contact

Munich, Germany

Munich Airport

latitude: 48-21N, longitude: 011-47E, elevation: 453 m


METAR: EDDM 280650Z 17005KT CAVOK 19/15 Q1019 NOSIG
TAF: EDDM 280500Z 2806/2912 25007KT CAVOK BECMG 2815/2817 33005KT BECMG 2907/2909 06006KT

Time: 09:23 (07:23 UTC)

Current weather observation

The report was made 33 minutes ago, at 06:50 UTC
Wind 5 kt from the South
Temperature 19°C
Humidity 78%
Pressure 1019 hPa
Visibility 10 km or more
no clouds below 1500 m and no cumulonimbus

Change units

Forecast

The report was made 2 hours and 23 minutes ago, at 05:00 UTC
Forecast valid from 28 at 06 UTC to 29 at 12 UTC
Wind 7 kt from the West/Southwest
Visibility 10 km or more
no clouds below 1500 m and no cumulonimbus
Becoming
from 28 at 15 UTC to 28 at 17 UTC
Wind 5 kt from the North/Northwest
Becoming
from 29 at 07 UTC to 29 at 09 UTC
Wind 6 kt from the East/Northeast
The information on this site is subject to a disclaimer
Weather : Europe Africa North America South America Asia Australia-Oceania Others
Satellite images 10-day forecastsClimateMarine weather Cyclones Lightning AirportsFAQ Languages Contact Newsletter About